sensor_id;sensor_type;location;lat;lon;timestamp;P1;durP1;ratioP1;P2;durP2;ratioP2
34924;SDS011;21130;51.728;8.748;2023-01-29T00:00:31;40.88;;;27.38;;
34924;SDS011;21130;51.728;8.748;2023-01-29T00:02:58;43.30;;;29.13;;
34924;SDS011;21130;51.728;8.748;2023-01-29T00:05:25;43.75;;;27.98;;
34924;SDS011;21130;51.728;8.748;2023-01-29T00:07:51;42.67;;;28.45;;
34924;SDS011;21130;51.728;8.748;2023-01-29T00:10:19;41.50;;;28.52;;
34924;SDS011;21130;51.728;8.748;2023-01-29T00:12:46;43.33;;;29.67;;
34924;SDS011;21130;51.728;8.748;2023-01-29T00:15:12;40.03;;;28.08;;
34924;SDS011;21130;51.728;8.748;2023-01-29T00:17:38;39.40;;;28.13;;
34924;SDS011;21130;51.728;8.748;2023-01-29T00:20:05;42.47;;;28.98;;
34924;SDS011;21130;51.728;8.748;2023-01-29T00:22:32;44.13;;;27.95;;
34924;SDS011;21130;51.728;8.748;2023-01-29T00:24:59;41.95;;;30.00;;
34924;SDS011;21130;51.728;8.748;2023-01-29T00:27:26;42.08;;;29.35;;
34924;SDS011;21130;51.728;8.748;2023-01-29T00:29:53;41.92;;;28.85;;
34924;SDS011;21130;51.728;8.748;2023-01-29T00:32:47;42.15;;;28.77;;
34924;SDS011;21130;51.728;8.748;2023-01-29T00:35:13;42.67;;;29.17;;
34924;SDS011;21130;51.728;8.748;2023-01-29T00:37:40;41.83;;;29.35;;
34924;SDS011;21130;51.728;8.748;2023-01-29T00:40:07;45.88;;;30.15;;
34924;SDS011;21130;51.728;8.748;2023-01-29T00:42:34;43.05;;;29.42;;
34924;SDS011;21130;51.728;8.748;2023-01-29T00:45:18;44.63;;;28.27;;
34924;SDS011;21130;51.728;8.748;2023-01-29T00:47:46;46.47;;;29.88;;
34924;SDS011;21130;51.728;8.748;2023-01-29T00:50:13;45.88;;;29.25;;
34924;SDS011;21130;51.728;8.748;2023-01-29T00:52:39;45.78;;;30.52;;
34924;SDS011;21130;51.728;8.748;2023-01-29T00:55:06;44.65;;;29.83;;
34924;SDS011;21130;51.728;8.748;2023-01-29T00:57:34;44.95;;;29.25;;
34924;SDS011;21130;51.728;8.748;2023-01-29T01:00:02;45.42;;;30.08;;
34924;SDS011;21130;51.728;8.748;2023-01-29T01:02:30;43.55;;;28.35;;
34924;SDS011;21130;51.728;8.748;2023-01-29T01:05:16;43.30;;;27.67;;
34924;SDS011;21130;51.728;8.748;2023-01-29T01:07:43;42.65;;;28.40;;
34924;SDS011;21130;51.728;8.748;2023-01-29T01:10:11;43.75;;;29.52;;
34924;SDS011;21130;51.728;8.748;2023-01-29T01:12:44;45.30;;;29.48;;
34924;SDS011;21130;51.728;8.748;2023-01-29T01:15:11;45.08;;;29.50;;
34924;SDS011;21130;51.728;8.748;2023-01-29T01:17:37;44.80;;;28.67;;
34924;SDS011;21130;51.728;8.748;2023-01-29T01:20:04;46.58;;;30.48;;
34924;SDS011;21130;51.728;8.748;2023-01-29T01:22:32;46.63;;;31.10;;
34924;SDS011;21130;51.728;8.748;2023-01-29T01:25:20;44.78;;;30.10;;
34924;SDS011;21130;51.728;8.748;2023-01-29T01:27:46;46.15;;;30.35;;
34924;SDS011;21130;51.728;8.748;2023-01-29T01:30:13;43.33;;;28.98;;
34924;SDS011;21130;51.728;8.748;2023-01-29T01:32:41;45.90;;;30.60;;
34924;SDS011;21130;51.728;8.748;2023-01-29T01:35:08;47.53;;;30.17;;
34924;SDS011;21130;51.728;8.748;2023-01-29T01:37:37;48.47;;;30.17;;
34924;SDS011;21130;51.728;8.748;2023-01-29T01:40:23;46.40;;;29.63;;
34924;SDS011;21130;51.728;8.748;2023-01-29T01:42:51;45.60;;;29.42;;
34924;SDS011;21130;51.728;8.748;2023-01-29T01:45:21;45.55;;;29.20;;
34924;SDS011;21130;51.728;8.748;2023-01-29T01:47:51;47.15;;;29.85;;
34924;SDS011;21130;51.728;8.748;2023-01-29T01:50:22;47.58;;;30.75;;
34924;SDS011;21130;51.728;8.748;2023-01-29T01:52:54;44.33;;;28.95;;
34924;SDS011;21130;51.728;8.748;2023-01-29T01:55:25;47.70;;;30.55;;
34924;SDS011;21130;51.728;8.748;2023-01-29T01:57:55;44.53;;;28.80;;
34924;SDS011;21130;51.728;8.748;2023-01-29T02:00:25;50.97;;;31.45;;
34924;SDS011;21130;51.728;8.748;2023-01-29T02:02:52;47.63;;;29.83;;
34924;SDS011;21130;51.728;8.748;2023-01-29T02:05:37;47.67;;;29.73;;
34924;SDS011;21130;51.728;8.748;2023-01-29T02:08:25;48.83;;;30.67;;
34924;SDS011;21130;51.728;8.748;2023-01-29T02:11:13;45.70;;;29.85;;
34924;SDS011;21130;51.728;8.748;2023-01-29T02:13:39;52.65;;;33.10;;
34924;SDS011;21130;51.728;8.748;2023-01-29T02:16:06;44.63;;;29.55;;
34924;SDS011;21130;51.728;8.748;2023-01-29T02:18:33;48.88;;;30.85;;
34924;SDS011;21130;51.728;8.748;2023-01-29T02:21:09;49.92;;;29.90;;
34924;SDS011;21130;51.728;8.748;2023-01-29T02:24:02;48.60;;;29.95;;
34924;SDS011;21130;51.728;8.748;2023-01-29T02:29:34;48.65;;;30.05;;
34924;SDS011;21130;51.728;8.748;2023-01-29T02:32:13;52.67;;;30.48;;
34924;SDS011;21130;51.728;8.748;2023-01-29T02:34:46;50.17;;;30.45;;
34924;SDS011;21130;51.728;8.748;2023-01-29T02:37:40;47.60;;;29.23;;
34924;SDS011;21130;51.728;8.748;2023-01-29T02:40:16;50.15;;;30.27;;
34924;SDS011;21130;51.728;8.748;2023-01-29T02:42:52;49.03;;;30.20;;
34924;SDS011;21130;51.728;8.748;2023-01-29T02:45:29;49.88;;;30.55;;
34924;SDS011;21130;51.728;8.748;2023-01-29T02:48:00;54.13;;;31.40;;
34924;SDS011;21130;51.728;8.748;2023-01-29T02:50:28;48.55;;;29.70;;
34924;SDS011;21130;51.728;8.748;2023-01-29T02:52:59;53.80;;;30.63;;
34924;SDS011;21130;51.728;8.748;2023-01-29T02:55:31;50.15;;;30.55;;
34924;SDS011;21130;51.728;8.748;2023-01-29T02:58:04;50.75;;;30.92;;
34924;SDS011;21130;51.728;8.748;2023-01-29T03:00:38;51.03;;;31.80;;
34924;SDS011;21130;51.728;8.748;2023-01-29T03:03:09;50.78;;;31.60;;
34924;SDS011;21130;51.728;8.748;2023-01-29T03:05:40;53.15;;;33.00;;
34924;SDS011;21130;51.728;8.748;2023-01-29T03:08:20;51.58;;;32.58;;
34924;SDS011;21130;51.728;8.748;2023-01-29T03:11:01;55.00;;;32.95;;
34924;SDS011;21130;51.728;8.748;2023-01-29T03:13:32;54.80;;;32.53;;
34924;SDS011;21130;51.728;8.748;2023-01-29T03:16:04;54.63;;;32.10;;
34924;SDS011;21130;51.728;8.748;2023-01-29T03:18:35;54.30;;;32.90;;
34924;SDS011;21130;51.728;8.748;2023-01-29T03:21:10;53.10;;;32.97;;
34924;SDS011;21130;51.728;8.748;2023-01-29T03:23:59;52.10;;;31.83;;
34924;SDS011;21130;51.728;8.748;2023-01-29T03:26:43;53.17;;;33.15;;
34924;SDS011;21130;51.728;8.748;2023-01-29T03:29:27;56.58;;;33.08;;
34924;SDS011;21130;51.728;8.748;2023-01-29T03:32:16;51.78;;;31.33;;
34924;SDS011;21130;51.728;8.748;2023-01-29T03:34:46;58.40;;;33.72;;
34924;SDS011;21130;51.728;8.748;2023-01-29T03:37:17;52.45;;;31.77;;
34924;SDS011;21130;51.728;8.748;2023-01-29T03:39:47;50.90;;;32.30;;
34924;SDS011;21130;51.728;8.748;2023-01-29T03:42:16;53.97;;;33.30;;
34924;SDS011;21130;51.728;8.748;2023-01-29T03:44:51;52.95;;;30.88;;
34924;SDS011;21130;51.728;8.748;2023-01-29T03:47:26;51.47;;;31.27;;
34924;SDS011;21130;51.728;8.748;2023-01-29T03:50:05;53.67;;;32.47;;
34924;SDS011;21130;51.728;8.748;2023-01-29T03:52:37;50.42;;;31.63;;
34924;SDS011;21130;51.728;8.748;2023-01-29T03:55:11;50.88;;;30.67;;
34924;SDS011;21130;51.728;8.748;2023-01-29T03:57:41;51.83;;;31.15;;
34924;SDS011;21130;51.728;8.748;2023-01-29T04:00:18;50.30;;;31.08;;
34924;SDS011;21130;51.728;8.748;2023-01-29T04:02:51;51.55;;;30.83;;
34924;SDS011;21130;51.728;8.748;2023-01-29T04:05:24;51.47;;;30.35;;
34924;SDS011;21130;51.728;8.748;2023-01-29T04:07:58;48.33;;;30.25;;
34924;SDS011;21130;51.728;8.748;2023-01-29T04:10:31;49.20;;;31.25;;
34924;SDS011;21130;51.728;8.748;2023-01-29T04:13:02;48.63;;;31.33;;
34924;SDS011;21130;51.728;8.748;2023-01-29T04:15:32;50.20;;;30.17;;
34924;SDS011;21130;51.728;8.748;2023-01-29T04:18:03;49.05;;;30.25;;
34924;SDS011;21130;51.728;8.748;2023-01-29T04:20:29;53.75;;;31.13;;
34924;SDS011;21130;51.728;8.748;2023-01-29T04:22:56;49.58;;;31.52;;
34924;SDS011;21130;51.728;8.748;2023-01-29T04:25:23;51.63;;;31.10;;
34924;SDS011;21130;51.728;8.748;2023-01-29T04:27:56;50.53;;;31.08;;
34924;SDS011;21130;51.728;8.748;2023-01-29T04:30:34;47.90;;;28.95;;
34924;SDS011;21130;51.728;8.748;2023-01-29T04:33:15;48.38;;;29.88;;
34924;SDS011;21130;51.728;8.748;2023-01-29T04:35:57;50.55;;;30.95;;
34924;SDS011;21130;51.728;8.748;2023-01-29T04:38:38;49.47;;;31.27;;
34924;SDS011;21130;51.728;8.748;2023-01-29T04:41:12;49.17;;;31.65;;
34924;SDS011;21130;51.728;8.748;2023-01-29T04:43:46;51.75;;;30.40;;
34924;SDS011;21130;51.728;8.748;2023-01-29T04:46:25;53.17;;;32.38;;
34924;SDS011;21130;51.728;8.748;2023-01-29T04:49:03;55.50;;;31.17;;
34924;SDS011;21130;51.728;8.748;2023-01-29T04:51:42;52.80;;;31.42;;
34924;SDS011;21130;51.728;8.748;2023-01-29T04:54:17;47.90;;;29.70;;
34924;SDS011;21130;51.728;8.748;2023-01-29T04:56:52;48.30;;;30.77;;
34924;SDS011;21130;51.728;8.748;2023-01-29T04:59:27;47.10;;;30.30;;
34924;SDS011;21130;51.728;8.748;2023-01-29T05:01:57;46.35;;;29.63;;
34924;SDS011;21130;51.728;8.748;2023-01-29T05:04:27;45.38;;;29.10;;
34924;SDS011;21130;51.728;8.748;2023-01-29T05:06:56;43.25;;;29.27;;
34924;SDS011;21130;51.728;8.748;2023-01-29T05:09:26;44.65;;;28.73;;
34924;SDS011;21130;51.728;8.748;2023-01-29T05:11:53;44.92;;;28.95;;
34924;SDS011;21130;51.728;8.748;2023-01-29T05:14:22;48.05;;;29.60;;
34924;SDS011;21130;51.728;8.748;2023-01-29T05:16:50;43.78;;;29.02;;
34924;SDS011;21130;51.728;8.748;2023-01-29T05:19:19;42.90;;;29.67;;
34924;SDS011;21130;51.728;8.748;2023-01-29T05:21:47;47.55;;;29.70;;
34924;SDS011;21130;51.728;8.748;2023-01-29T05:24:15;49.78;;;31.42;;
34924;SDS011;21130;51.728;8.748;2023-01-29T05:26:43;45.38;;;29.17;;
34924;SDS011;21130;51.728;8.748;2023-01-29T05:29:30;48.88;;;29.13;;
34924;SDS011;21130;51.728;8.748;2023-01-29T05:31:57;45.90;;;28.92;;
34924;SDS011;21130;51.728;8.748;2023-01-29T05:34:24;46.83;;;29.42;;
34924;SDS011;21130;51.728;8.748;2023-01-29T05:36:52;43.53;;;28.05;;
34924;SDS011;21130;51.728;8.748;2023-01-29T05:39:19;44.47;;;28.80;;
34924;SDS011;21130;51.728;8.748;2023-01-29T05:41:45;46.35;;;29.17;;
34924;SDS011;21130;51.728;8.748;2023-01-29T05:44:12;41.38;;;27.52;;
34924;SDS011;21130;51.728;8.748;2023-01-29T05:46:38;45.92;;;28.73;;
34924;SDS011;21130;51.728;8.748;2023-01-29T05:49:05;42.67;;;27.75;;
34924;SDS011;21130;51.728;8.748;2023-01-29T05:51:31;42.53;;;28.25;;
34924;SDS011;21130;51.728;8.748;2023-01-29T05:53:59;43.17;;;27.75;;
34924;SDS011;21130;51.728;8.748;2023-01-29T05:56:26;44.88;;;28.40;;
34924;SDS011;21130;51.728;8.748;2023-01-29T05:58:52;44.33;;;28.42;;
34924;SDS011;21130;51.728;8.748;2023-01-29T06:01:19;43.63;;;28.65;;
34924;SDS011;21130;51.728;8.748;2023-01-29T06:03:47;44.00;;;29.23;;
34924;SDS011;21130;51.728;8.748;2023-01-29T06:06:14;44.47;;;29.67;;
34924;SDS011;21130;51.728;8.748;2023-01-29T06:08:40;47.60;;;30.13;;
34924;SDS011;21130;51.728;8.748;2023-01-29T06:11:09;48.67;;;30.45;;
34924;SDS011;21130;51.728;8.748;2023-01-29T06:13:37;47.13;;;30.55;;
34924;SDS011;21130;51.728;8.748;2023-01-29T06:16:05;48.58;;;30.45;;
34924;SDS011;21130;51.728;8.748;2023-01-29T06:18:32;45.40;;;29.75;;
34924;SDS011;21130;51.728;8.748;2023-01-29T06:20:59;44.92;;;28.27;;
34924;SDS011;21130;51.728;8.748;2023-01-29T06:23:26;45.50;;;29.25;;
34924;SDS011;21130;51.728;8.748;2023-01-29T06:25:53;47.60;;;29.95;;
34924;SDS011;21130;51.728;8.748;2023-01-29T06:28:25;47.70;;;29.45;;
34924;SDS011;21130;51.728;8.748;2023-01-29T06:30:51;44.13;;;29.02;;
34924;SDS011;21130;51.728;8.748;2023-01-29T06:33:18;45.90;;;29.92;;
34924;SDS011;21130;51.728;8.748;2023-01-29T06:35:46;43.92;;;27.05;;
34924;SDS011;21130;51.728;8.748;2023-01-29T06:38:12;44.30;;;28.65;;
34924;SDS011;21130;51.728;8.748;2023-01-29T06:40:39;46.58;;;29.63;;
34924;SDS011;21130;51.728;8.748;2023-01-29T06:43:05;47.47;;;30.25;;
34924;SDS011;21130;51.728;8.748;2023-01-29T06:45:33;48.95;;;29.95;;
34924;SDS011;21130;51.728;8.748;2023-01-29T06:47:59;49.78;;;30.60;;
34924;SDS011;21130;51.728;8.748;2023-01-29T06:50:26;48.22;;;29.98;;
34924;SDS011;21130;51.728;8.748;2023-01-29T06:52:52;48.92;;;30.23;;
34924;SDS011;21130;51.728;8.748;2023-01-29T06:55:18;44.03;;;28.20;;
34924;SDS011;21130;51.728;8.748;2023-01-29T06:57:45;44.28;;;28.95;;
34924;SDS011;21130;51.728;8.748;2023-01-29T07:02:40;45.03;;;29.77;;
34924;SDS011;21130;51.728;8.748;2023-01-29T07:05:07;44.63;;;28.58;;
34924;SDS011;21130;51.728;8.748;2023-01-29T07:07:34;46.35;;;28.77;;
34924;SDS011;21130;51.728;8.748;2023-01-29T07:10:01;44.72;;;28.63;;
34924;SDS011;21130;51.728;8.748;2023-01-29T07:12:28;41.55;;;27.65;;
34924;SDS011;21130;51.728;8.748;2023-01-29T07:14:54;46.00;;;29.13;;
34924;SDS011;21130;51.728;8.748;2023-01-29T07:17:22;47.67;;;29.98;;
34924;SDS011;21130;51.728;8.748;2023-01-29T07:19:50;45.28;;;28.98;;
34924;SDS011;21130;51.728;8.748;2023-01-29T07:22:16;46.40;;;28.77;;
34924;SDS011;21130;51.728;8.748;2023-01-29T07:24:42;45.00;;;28.73;;
34924;SDS011;21130;51.728;8.748;2023-01-29T07:27:09;45.45;;;28.50;;
34924;SDS011;21130;51.728;8.748;2023-01-29T07:29:35;42.60;;;28.77;;
34924;SDS011;21130;51.728;8.748;2023-01-29T07:32:02;39.78;;;26.67;;
34924;SDS011;21130;51.728;8.748;2023-01-29T07:34:30;42.13;;;27.50;;
34924;SDS011;21130;51.728;8.748;2023-01-29T07:36:58;43.60;;;30.48;;
34924;SDS011;21130;51.728;8.748;2023-01-29T07:39:24;34.42;;;24.45;;
34924;SDS011;21130;51.728;8.748;2023-01-29T07:41:50;34.08;;;23.90;;
34924;SDS011;21130;51.728;8.748;2023-01-29T07:44:17;37.17;;;25.00;;
34924;SDS011;21130;51.728;8.748;2023-01-29T07:46:43;34.45;;;24.20;;
34924;SDS011;21130;51.728;8.748;2023-01-29T07:49:10;35.72;;;24.17;;
34924;SDS011;21130;51.728;8.748;2023-01-29T07:51:36;37.75;;;24.80;;
34924;SDS011;21130;51.728;8.748;2023-01-29T07:54:04;34.42;;;22.77;;
34924;SDS011;21130;51.728;8.748;2023-01-29T07:56:31;35.28;;;23.52;;
34924;SDS011;21130;51.728;8.748;2023-01-29T07:58:57;34.60;;;23.65;;
34924;SDS011;21130;51.728;8.748;2023-01-29T08:01:23;34.03;;;22.88;;
34924;SDS011;21130;51.728;8.748;2023-01-29T08:03:50;30.70;;;21.52;;
34924;SDS011;21130;51.728;8.748;2023-01-29T08:06:16;31.95;;;22.55;;
34924;SDS011;21130;51.728;8.748;2023-01-29T08:08:43;30.08;;;21.63;;
34924;SDS011;21130;51.728;8.748;2023-01-29T08:11:11;31.95;;;22.55;;
34924;SDS011;21130;51.728;8.748;2023-01-29T08:13:37;29.05;;;21.55;;
34924;SDS011;21130;51.728;8.748;2023-01-29T08:16:04;33.22;;;20.88;;
34924;SDS011;21130;51.728;8.748;2023-01-29T08:18:31;29.08;;;19.95;;
34924;SDS011;21130;51.728;8.748;2023-01-29T08:20:58;28.88;;;20.15;;
34924;SDS011;21130;51.728;8.748;2023-01-29T08:23:25;30.00;;;21.92;;
34924;SDS011;21130;51.728;8.748;2023-01-29T08:25:52;28.42;;;20.02;;
34924;SDS011;21130;51.728;8.748;2023-01-29T08:28:20;26.85;;;19.67;;
34924;SDS011;21130;51.728;8.748;2023-01-29T08:30:46;27.83;;;19.92;;
34924;SDS011;21130;51.728;8.748;2023-01-29T08:33:13;26.88;;;19.75;;
34924;SDS011;21130;51.728;8.748;2023-01-29T08:35:39;27.65;;;19.73;;
34924;SDS011;21130;51.728;8.748;2023-01-29T08:38:06;28.92;;;20.42;;
34924;SDS011;21130;51.728;8.748;2023-01-29T08:40:33;29.35;;;20.73;;
34924;SDS011;21130;51.728;8.748;2023-01-29T08:43:00;26.13;;;18.70;;
34924;SDS011;21130;51.728;8.748;2023-01-29T08:45:29;27.83;;;19.70;;
34924;SDS011;21130;51.728;8.748;2023-01-29T08:47:55;27.77;;;21.08;;
34924;SDS011;21130;51.728;8.748;2023-01-29T08:50:22;30.17;;;20.20;;
34924;SDS011;21130;51.728;8.748;2023-01-29T08:52:49;26.95;;;20.08;;
34924;SDS011;21130;51.728;8.748;2023-01-29T08:55:15;27.77;;;19.42;;
34924;SDS011;21130;51.728;8.748;2023-01-29T08:57:42;28.05;;;19.70;;
34924;SDS011;21130;51.728;8.748;2023-01-29T09:00:09;26.58;;;20.42;;
34924;SDS011;21130;51.728;8.748;2023-01-29T09:02:37;27.85;;;20.50;;
34924;SDS011;21130;51.728;8.748;2023-01-29T09:05:04;27.45;;;19.95;;
34924;SDS011;21130;51.728;8.748;2023-01-29T09:07:31;27.77;;;19.33;;
34924;SDS011;21130;51.728;8.748;2023-01-29T09:09:58;29.50;;;19.55;;
34924;SDS011;21130;51.728;8.748;2023-01-29T09:12:25;27.10;;;20.52;;
34924;SDS011;21130;51.728;8.748;2023-01-29T09:14:51;27.77;;;19.70;;
34924;SDS011;21130;51.728;8.748;2023-01-29T09:17:18;28.70;;;19.95;;
34924;SDS011;21130;51.728;8.748;2023-01-29T09:19:47;29.77;;;19.92;;
34924;SDS011;21130;51.728;8.748;2023-01-29T09:22:16;28.55;;;20.50;;
34924;SDS011;21130;51.728;8.748;2023-01-29T09:24:42;29.50;;;20.35;;
34924;SDS011;21130;51.728;8.748;2023-01-29T09:27:09;28.60;;;20.88;;
34924;SDS011;21130;51.728;8.748;2023-01-29T09:29:35;26.98;;;20.40;;
34924;SDS011;21130;51.728;8.748;2023-01-29T09:32:02;28.73;;;20.10;;
34924;SDS011;21130;51.728;8.748;2023-01-29T09:34:28;27.40;;;19.92;;
34924;SDS011;21130;51.728;8.748;2023-01-29T09:36:57;30.67;;;20.88;;
34924;SDS011;21130;51.728;8.748;2023-01-29T09:39:23;29.75;;;20.63;;
34924;SDS011;21130;51.728;8.748;2023-01-29T09:41:51;29.00;;;20.10;;
34924;SDS011;21130;51.728;8.748;2023-01-29T09:44:25;27.33;;;19.83;;
34924;SDS011;21130;51.728;8.748;2023-01-29T09:46:58;26.80;;;20.20;;
34924;SDS011;21130;51.728;8.748;2023-01-29T09:49:31;28.42;;;19.52;;
34924;SDS011;21130;51.728;8.748;2023-01-29T09:52:06;30.02;;;19.77;;
34924;SDS011;21130;51.728;8.748;2023-01-29T09:54:43;28.55;;;20.02;;
34924;SDS011;21130;51.728;8.748;2023-01-29T09:57:18;26.58;;;20.08;;
34924;SDS011;21130;51.728;8.748;2023-01-29T09:59:48;29.77;;;20.67;;
34924;SDS011;21130;51.728;8.748;2023-01-29T10:02:18;29.15;;;19.65;;
34924;SDS011;21130;51.728;8.748;2023-01-29T10:05:07;27.65;;;20.17;;
34924;SDS011;21130;51.728;8.748;2023-01-29T10:07:59;26.48;;;19.65;;
34924;SDS011;21130;51.728;8.748;2023-01-29T10:10:48;26.63;;;19.48;;
34924;SDS011;21130;51.728;8.748;2023-01-29T10:13:19;29.20;;;20.08;;
34924;SDS011;21130;51.728;8.748;2023-01-29T10:16:02;26.27;;;19.15;;
34924;SDS011;21130;51.728;8.748;2023-01-29T10:18:44;29.02;;;20.27;;
34924;SDS011;21130;51.728;8.748;2023-01-29T10:21:27;27.92;;;19.48;;
34924;SDS011;21130;51.728;8.748;2023-01-29T10:24:07;28.90;;;21.33;;
34924;SDS011;21130;51.728;8.748;2023-01-29T10:26:42;26.42;;;18.02;;
34924;SDS011;21130;51.728;8.748;2023-01-29T10:29:09;28.70;;;19.67;;
34924;SDS011;21130;51.728;8.748;2023-01-29T10:31:41;27.23;;;19.27;;
34924;SDS011;21130;51.728;8.748;2023-01-29T10:34:11;27.55;;;19.40;;
34924;SDS011;21130;51.728;8.748;2023-01-29T10:36:45;26.55;;;19.10;;
34924;SDS011;21130;51.728;8.748;2023-01-29T10:39:15;25.17;;;18.02;;
34924;SDS011;21130;51.728;8.748;2023-01-29T10:41:47;24.55;;;18.42;;
34924;SDS011;21130;51.728;8.748;2023-01-29T10:44:26;26.88;;;19.50;;
34924;SDS011;21130;51.728;8.748;2023-01-29T10:47:06;27.30;;;18.50;;
34924;SDS011;21130;51.728;8.748;2023-01-29T10:49:58;24.60;;;18.75;;
34924;SDS011;21130;51.728;8.748;2023-01-29T10:52:40;27.13;;;18.83;;
34924;SDS011;21130;51.728;8.748;2023-01-29T10:55:21;24.63;;;18.80;;
34924;SDS011;21130;51.728;8.748;2023-01-29T10:58:00;25.40;;;18.88;;
34924;SDS011;21130;51.728;8.748;2023-01-29T11:00:34;29.23;;;18.02;;
34924;SDS011;21130;51.728;8.748;2023-01-29T11:03:11;25.77;;;19.00;;
34924;SDS011;21130;51.728;8.748;2023-01-29T11:05:41;24.90;;;18.33;;
34924;SDS011;21130;51.728;8.748;2023-01-29T11:08:14;25.00;;;17.90;;
34924;SDS011;21130;51.728;8.748;2023-01-29T11:10:46;26.98;;;18.23;;
34924;SDS011;21130;51.728;8.748;2023-01-29T11:13:22;23.65;;;18.13;;
34924;SDS011;21130;51.728;8.748;2023-01-29T11:15:54;23.60;;;17.33;;
34924;SDS011;21130;51.728;8.748;2023-01-29T11:18:21;24.52;;;18.27;;
34924;SDS011;21130;51.728;8.748;2023-01-29T11:20:49;23.30;;;18.05;;
34924;SDS011;21130;51.728;8.748;2023-01-29T11:23:27;25.90;;;17.75;;
34924;SDS011;21130;51.728;8.748;2023-01-29T11:25:56;25.83;;;18.00;;
34924;SDS011;21130;51.728;8.748;2023-01-29T11:28:34;24.75;;;17.85;;
34924;SDS011;21130;51.728;8.748;2023-01-29T11:31:02;23.08;;;16.83;;
34924;SDS011;21130;51.728;8.748;2023-01-29T11:33:29;22.08;;;16.05;;
34924;SDS011;21130;51.728;8.748;2023-01-29T11:35:56;22.63;;;16.92;;
34924;SDS011;21130;51.728;8.748;2023-01-29T11:38:23;20.80;;;16.23;;
34924;SDS011;21130;51.728;8.748;2023-01-29T11:40:51;24.45;;;17.63;;
34924;SDS011;21130;51.728;8.748;2023-01-29T11:43:21;22.75;;;16.35;;
34924;SDS011;21130;51.728;8.748;2023-01-29T11:45:54;21.45;;;15.70;;
34924;SDS011;21130;51.728;8.748;2023-01-29T11:48:24;24.90;;;17.60;;
34924;SDS011;21130;51.728;8.748;2023-01-29T11:50:58;23.88;;;17.02;;
34924;SDS011;21130;51.728;8.748;2023-01-29T11:53:31;21.58;;;16.38;;
34924;SDS011;21130;51.728;8.748;2023-01-29T11:56:01;22.33;;;16.33;;
34924;SDS011;21130;51.728;8.748;2023-01-29T11:58:31;21.92;;;16.02;;
34924;SDS011;21130;51.728;8.748;2023-01-29T12:00:59;19.98;;;15.75;;
34924;SDS011;21130;51.728;8.748;2023-01-29T12:03:29;22.20;;;15.35;;
34924;SDS011;21130;51.728;8.748;2023-01-29T12:06:00;21.80;;;15.43;;
34924;SDS011;21130;51.728;8.748;2023-01-29T12:08:31;21.45;;;15.27;;
34924;SDS011;21130;51.728;8.748;2023-01-29T12:11:06;20.77;;;15.13;;
34924;SDS011;21130;51.728;8.748;2023-01-29T12:13:34;21.05;;;15.20;;
34924;SDS011;21130;51.728;8.748;2023-01-29T12:16:14;22.95;;;14.98;;
34924;SDS011;21130;51.728;8.748;2023-01-29T12:18:48;23.08;;;15.00;;
34924;SDS011;21130;51.728;8.748;2023-01-29T12:21:20;22.42;;;15.30;;
34924;SDS011;21130;51.728;8.748;2023-01-29T12:23:56;20.65;;;14.88;;
34924;SDS011;21130;51.728;8.748;2023-01-29T12:26:30;20.27;;;15.32;;
34924;SDS011;21130;51.728;8.748;2023-01-29T12:29:06;19.08;;;14.85;;
34924;SDS011;21130;51.728;8.748;2023-01-29T12:31:45;18.25;;;14.13;;
34924;SDS011;21130;51.728;8.748;2023-01-29T12:34:18;20.05;;;13.73;;
34924;SDS011;21130;51.728;8.748;2023-01-29T12:36:51;18.42;;;13.55;;
34924;SDS011;21130;51.728;8.748;2023-01-29T12:39:21;19.67;;;14.38;;
34924;SDS011;21130;51.728;8.748;2023-01-29T12:41:49;21.15;;;14.95;;
34924;SDS011;21130;51.728;8.748;2023-01-29T12:44:23;20.27;;;14.43;;
34924;SDS011;21130;51.728;8.748;2023-01-29T12:46:57;22.33;;;14.60;;
34924;SDS011;21130;51.728;8.748;2023-01-29T12:49:28;18.88;;;14.18;;
34924;SDS011;21130;51.728;8.748;2023-01-29T12:51:59;20.52;;;14.45;;
34924;SDS011;21130;51.728;8.748;2023-01-29T12:54:34;18.48;;;13.63;;
34924;SDS011;21130;51.728;8.748;2023-01-29T12:57:06;20.13;;;14.48;;
34924;SDS011;21130;51.728;8.748;2023-01-29T12:59:40;18.13;;;14.13;;
34924;SDS011;21130;51.728;8.748;2023-01-29T13:02:13;20.60;;;13.52;;
34924;SDS011;21130;51.728;8.748;2023-01-29T13:04:47;19.40;;;14.15;;
34924;SDS011;21130;51.728;8.748;2023-01-29T13:07:22;19.73;;;14.25;;
34924;SDS011;21130;51.728;8.748;2023-01-29T13:09:53;17.77;;;13.73;;
34924;SDS011;21130;51.728;8.748;2023-01-29T13:12:29;19.42;;;13.77;;
34924;SDS011;21130;51.728;8.748;2023-01-29T13:14:59;19.42;;;14.27;;
34924;SDS011;21130;51.728;8.748;2023-01-29T13:17:32;18.23;;;14.35;;
34924;SDS011;21130;51.728;8.748;2023-01-29T13:20:03;20.77;;;14.60;;
34924;SDS011;21130;51.728;8.748;2023-01-29T13:22:38;19.33;;;14.52;;
34924;SDS011;21130;51.728;8.748;2023-01-29T13:25:11;19.15;;;14.30;;
34924;SDS011;21130;51.728;8.748;2023-01-29T13:27:41;19.65;;;14.63;;
34924;SDS011;21130;51.728;8.748;2023-01-29T13:30:22;18.70;;;14.70;;
34924;SDS011;21130;51.728;8.748;2023-01-29T13:32:50;21.98;;;15.75;;
34924;SDS011;21130;51.728;8.748;2023-01-29T13:35:18;19.40;;;15.40;;
34924;SDS011;21130;51.728;8.748;2023-01-29T13:37:49;20.77;;;15.07;;
34924;SDS011;21130;51.728;8.748;2023-01-29T13:40:18;19.80;;;15.00;;
34924;SDS011;21130;51.728;8.748;2023-01-29T13:42:48;22.48;;;16.23;;
34924;SDS011;21130;51.728;8.748;2023-01-29T13:45:18;21.27;;;15.48;;
34924;SDS011;21130;51.728;8.748;2023-01-29T13:47:46;21.20;;;15.88;;
34924;SDS011;21130;51.728;8.748;2023-01-29T13:50:17;21.65;;;15.88;;
34924;SDS011;21130;51.728;8.748;2023-01-29T13:52:52;21.88;;;15.93;;
34924;SDS011;21130;51.728;8.748;2023-01-29T13:55:22;24.67;;;17.15;;
34924;SDS011;21130;51.728;8.748;2023-01-29T13:57:55;24.17;;;17.48;;
34924;SDS011;21130;51.728;8.748;2023-01-29T14:09:30;23.35;;;17.60;;
34924;SDS011;21130;51.728;8.748;2023-01-29T14:12:31;23.95;;;18.15;;
34924;SDS011;21130;51.728;8.748;2023-01-29T14:17:56;25.88;;;17.85;;
34924;SDS011;21130;51.728;8.748;2023-01-29T14:20:29;26.35;;;17.60;;
34924;SDS011;21130;51.728;8.748;2023-01-29T14:22:59;23.35;;;17.40;;
34924;SDS011;21130;51.728;8.748;2023-01-29T14:25:28;26.30;;;19.63;;
34924;SDS011;21130;51.728;8.748;2023-01-29T14:27:57;25.67;;;18.92;;
34924;SDS011;21130;51.728;8.748;2023-01-29T14:30:26;29.42;;;19.25;;
34924;SDS011;21130;51.728;8.748;2023-01-29T14:32:57;25.20;;;18.60;;
34924;SDS011;21130;51.728;8.748;2023-01-29T14:35:26;26.15;;;19.83;;
34924;SDS011;21130;51.728;8.748;2023-01-29T14:37:58;29.05;;;19.73;;
34924;SDS011;21130;51.728;8.748;2023-01-29T14:40:29;24.83;;;19.05;;
34924;SDS011;21130;51.728;8.748;2023-01-29T14:43:00;27.92;;;20.05;;
34924;SDS011;21130;51.728;8.748;2023-01-29T14:45:29;29.90;;;20.40;;
34924;SDS011;21130;51.728;8.748;2023-01-29T14:48:02;32.28;;;20.52;;
34924;SDS011;21130;51.728;8.748;2023-01-29T14:50:44;28.23;;;20.92;;
34924;SDS011;21130;51.728;8.748;2023-01-29T14:53:15;28.13;;;21.33;;
34924;SDS011;21130;51.728;8.748;2023-01-29T14:55:47;31.50;;;22.48;;
34924;SDS011;21130;51.728;8.748;2023-01-29T14:58:18;31.17;;;21.23;;
34924;SDS011;21130;51.728;8.748;2023-01-29T15:00:50;29.63;;;21.90;;